N299EZ -KMEM
Flight info
| Callsign | N299EZ |
|---|---|
| Flight time | N/A |
| Altitude | VFR |
| Route | |
| Aircraft |
Departure
| Time | N/A |
|---|---|
| Airport | - |
Arrival
| Time | 2026-05-04 01:35 |
|---|---|
| Airport | Memphis International Airport (KMEM) |
| Time | Latitude | Longitude | Altitude | Speed | Heading |
|---|---|---|---|---|---|
| 2026-05-04 01:21 | 35.61656 | -89.40835 | 8836 ft | 268 kts | 221° |
| 2026-05-04 01:21 | 35.60215 | -89.42294 | 8843 ft | 267 kts | 221° |
| 2026-05-04 01:22 | 35.58781 | -89.43746 | 8843 ft | 267 kts | 221° |
| 2026-05-04 01:22 | 35.57352 | -89.45202 | 8753 ft | 269 kts | 222° |
| 2026-05-04 01:22 | 35.56005 | -89.46700 | 8525 ft | 252 kts | 225° |
| 2026-05-04 01:22 | 35.54804 | -89.48183 | 8101 ft | 246 kts | 228° |
| 2026-05-04 01:23 | 35.53672 | -89.49758 | 7487 ft | 247 kts | 232° |
| 2026-05-04 01:23 | 35.52624 | -89.51441 | 6834 ft | 247 kts | 236° |
| 2026-05-04 01:23 | 35.51637 | -89.53154 | 6229 ft | 244 kts | 235° |
| 2026-05-04 01:23 | 35.50515 | -89.54697 | 5670 ft | 241 kts | 226° |
| 2026-05-04 01:24 | 35.49330 | -89.56130 | 5047 ft | 240 kts | 223° |
| 2026-05-04 01:24 | 35.48104 | -89.57398 | 5033 ft | 219 kts | 221° |
| 2026-05-04 01:24 | 35.46970 | -89.58537 | 5114 ft | 205 kts | 220° |
| 2026-05-04 01:24 | 35.46240 | -89.59265 | 5073 ft | 204 kts | 222° |
| 2026-05-04 01:25 | 35.45230 | -89.60340 | 5317 ft | 191 kts | 223° |
| 2026-05-04 01:25 | 35.44207 | -89.61482 | 4968 ft | 208 kts | 225° |
| 2026-05-04 01:25 | 35.43136 | -89.62692 | 4764 ft | 210 kts | 222° |
| 2026-05-04 01:25 | 35.42012 | -89.63835 | 4678 ft | 209 kts | 220° |
| 2026-05-04 01:26 | 35.40837 | -89.64885 | 4617 ft | 207 kts | 217° |
| 2026-05-04 01:26 | 35.39691 | -89.65880 | 4790 ft | 197 kts | 218° |
| 2026-05-04 01:26 | 35.38607 | -89.66887 | 4864 ft | 198 kts | 220° |
| 2026-05-04 01:26 | 35.37521 | -89.67960 | 4837 ft | 201 kts | 221° |
| 2026-05-04 01:27 | 35.36413 | -89.68992 | 4939 ft | 198 kts | 216° |
| 2026-05-04 01:27 | 35.35284 | -89.69934 | 5080 ft | 195 kts | 216° |
| 2026-05-04 01:27 | 35.34154 | -89.70854 | 5178 ft | 196 kts | 215° |
| 2026-05-04 01:27 | 35.33012 | -89.71780 | 5197 ft | 199 kts | 215° |
| 2026-05-04 01:28 | 35.31833 | -89.72692 | 5085 ft | 206 kts | 213° |
| 2026-05-04 01:28 | 35.30608 | -89.73653 | 4845 ft | 214 kts | 215° |
| 2026-05-04 01:28 | 35.29362 | -89.74690 | 4613 ft | 216 kts | 216° |
| 2026-05-04 01:28 | 35.28105 | -89.75667 | 4494 ft | 213 kts | 213° |
| 2026-05-04 01:29 | 35.26831 | -89.76583 | 4398 ft | 211 kts | 213° |
| 2026-05-04 01:29 | 35.25600 | -89.77540 | 4343 ft | 207 kts | 216° |
| 2026-05-04 01:29 | 35.24438 | -89.78523 | 4455 ft | 200 kts | 217° |
| 2026-05-04 01:29 | 35.23322 | -89.79526 | 4498 ft | 199 kts | 219° |
| 2026-05-04 01:30 | 35.22247 | -89.80608 | 4483 ft | 201 kts | 223° |
| 2026-05-04 01:30 | 35.21208 | -89.81749 | 4448 ft | 202 kts | 225° |
| 2026-05-04 01:30 | 35.20210 | -89.82969 | 4425 ft | 202 kts | 225° |
| 2026-05-04 01:30 | 35.19140 | -89.84097 | 4396 ft | 203 kts | 220° |
| 2026-05-04 01:31 | 35.18024 | -89.85144 | 4402 ft | 202 kts | 218° |
| 2026-05-04 01:31 | 35.16889 | -89.86156 | 4401 ft | 201 kts | 218° |
| 2026-05-04 01:31 | 35.15758 | -89.87172 | 4396 ft | 202 kts | 218° |
| 2026-05-04 01:31 | 35.14658 | -89.88193 | 4386 ft | 202 kts | 219° |
| 2026-05-04 01:32 | 35.13539 | -89.89271 | 4229 ft | 207 kts | 220° |
| 2026-05-04 01:32 | 35.12447 | -89.90429 | 3970 ft | 207 kts | 227° |
| 2026-05-04 01:32 | 35.11572 | -89.91794 | 3642 ft | 202 kts | 241° |
| 2026-05-04 01:32 | 35.11115 | -89.93426 | 3050 ft | 200 kts | 264° |
| 2026-05-04 01:33 | 35.10997 | -89.95077 | 2444 ft | 195 kts | 264° |
| 2026-05-04 01:33 | 35.10470 | -89.96504 | 1981 ft | 178 kts | 219° |
| 2026-05-04 01:33 | 35.09331 | -89.97031 | 1419 ft | 175 kts | 192° |
| 2026-05-04 01:33 | 35.08206 | -89.97246 | 1213 ft | 157 kts | 190° |
| 2026-05-04 01:34 | 35.07140 | -89.97329 | 954 ft | 153 kts | 182° |
| 2026-05-04 01:34 | 35.06097 | -89.97315 | 633 ft | 145 kts | 181° |
| 2026-05-04 01:34 | 35.05134 | -89.97299 | 440 ft | 131 kts | 181° |
| 2026-05-04 01:34 | 35.04257 | -89.97289 | 312 ft | 117 kts | 180° |
| 2026-05-04 01:35 | 35.03677 | -89.97281 | 306 ft | 60 kts | 179° |
| 2026-05-04 01:35 | 35.03296 | -89.97275 | 301 ft | 53 kts | 178° |
| 2026-05-04 01:35 | 35.02971 | -89.97269 | 297 ft | 37 kts | 179° |
| 2026-05-04 01:35 | 35.02728 | -89.97300 | 293 ft | 16 kts | 233° |
| 2026-05-04 01:36 | 35.02690 | -89.97378 | 296 ft | 5 kts | 227° |
| 2026-05-04 01:36 | 35.02683 | -89.97386 | 297 ft | 0 kts | 223° |
| 2026-05-04 01:38 | 35.02644 | -89.97416 | 295 ft | 20 kts | 197° |
| 2026-05-04 01:38 | 35.02608 | -89.97418 | 295 ft | 8 kts | 14° |
| 2026-05-04 01:38 | 35.02780 | -89.97426 | 296 ft | 35 kts | 359° |
| 2026-05-04 01:38 | 35.03069 | -89.97434 | 298 ft | 45 kts | 359° |
| 2026-05-04 01:39 | 35.03322 | -89.97438 | 298 ft | 33 kts | 359° |
| 2026-05-04 01:39 | 35.03516 | -89.97443 | 301 ft | 23 kts | 360° |
| 2026-05-04 01:39 | 35.03659 | -89.97446 | 300 ft | 21 kts | 359° |
| 2026-05-04 01:39 | 35.03854 | -89.97450 | 306 ft | 24 kts | 359° |
| 2026-05-04 01:40 | 35.04076 | -89.97455 | 308 ft | 35 kts | 358° |
| 2026-05-04 01:40 | 35.04262 | -89.97458 | 313 ft | 19 kts | 358° |
| 2026-05-04 01:40 | 35.04378 | -89.97460 | 313 ft | 18 kts | 359° |
| 2026-05-04 01:40 | 35.04554 | -89.97465 | 311 ft | 22 kts | 358° |
| 2026-05-04 01:41 | 35.04766 | -89.97468 | 314 ft | 38 kts | 359° |
| 2026-05-04 01:41 | 35.04931 | -89.97473 | 312 ft | 18 kts | 358° |
| 2026-05-04 01:41 | 35.05033 | -89.97476 | 314 ft | 12 kts | 0° |
| 2026-05-04 01:41 | 35.05137 | -89.97477 | 316 ft | 20 kts | 359° |
| 2026-05-04 01:42 | 35.05325 | -89.97481 | 318 ft | 27 kts | 359° |
| 2026-05-04 01:42 | 35.05397 | -89.97483 | 320 ft | 0 kts | 359° |
| 2026-05-04 01:42 | 35.05428 | -89.97483 | 321 ft | 16 kts | 359° |
| 2026-05-04 01:43 | 35.05607 | -89.97486 | 315 ft | 29 kts | 1° |
| 2026-05-04 01:43 | 35.05669 | -89.97512 | 308 ft | 1 kts | 271° |
| 2026-05-04 01:43 | 35.05669 | -89.97518 | 308 ft | 5 kts | 271° |
| 2026-05-04 01:43 | 35.05673 | -89.97665 | 310 ft | 28 kts | 272° |
| 2026-05-04 01:44 | 35.05681 | -89.97955 | 299 ft | 17 kts | 266° |
| 2026-05-04 01:44 | 35.05628 | -89.98044 | 301 ft | 11 kts | 228° |
| 2026-05-04 01:44 | 35.05587 | -89.98099 | 296 ft | 7 kts | 227° |
| 2026-05-04 01:44 | 35.05562 | -89.98132 | 295 ft | 5 kts | 226° |
| 2026-05-04 01:45 | 35.05512 | -89.98140 | 296 ft | 13 kts | 136° |
| 2026-05-04 01:45 | 35.05479 | -89.98036 | 308 ft | 15 kts | 137° |
| 2026-05-04 01:45 | 35.05455 | -89.98013 | 307 ft | 5 kts | 92° |
| 2026-05-04 01:46 | 35.05455 | -89.98002 | 309 ft | 0 kts | 91° |